sensor_id;sensor_type;location;lat;lon;timestamp;P1;durP1;ratioP1;P2;durP2;ratioP2
10582;SDS011;33679;51.218;6.786;2022-12-16T00:00:19;38.77;;;18.27;;
10582;SDS011;33679;51.218;6.786;2022-12-16T00:02:48;41.00;;;18.10;;
10582;SDS011;33679;51.218;6.786;2022-12-16T00:05:16;35.23;;;16.80;;
10582;SDS011;33679;51.218;6.786;2022-12-16T00:07:44;36.57;;;17.83;;
10582;SDS011;33679;51.218;6.786;2022-12-16T00:10:11;38.03;;;17.53;;
10582;SDS011;33679;51.218;6.786;2022-12-16T00:12:39;45.90;;;20.53;;
10582;SDS011;33679;51.218;6.786;2022-12-16T00:15:06;45.27;;;19.87;;
10582;SDS011;33679;51.218;6.786;2022-12-16T00:17:34;36.63;;;18.67;;
10582;SDS011;33679;51.218;6.786;2022-12-16T00:20:03;38.97;;;18.83;;
10582;SDS011;33679;51.218;6.786;2022-12-16T00:22:32;34.90;;;18.07;;
10582;SDS011;33679;51.218;6.786;2022-12-16T00:25:02;32.90;;;17.67;;
10582;SDS011;33679;51.218;6.786;2022-12-16T00:27:30;31.53;;;17.97;;
10582;SDS011;33679;51.218;6.786;2022-12-16T00:29:58;36.63;;;17.73;;
10582;SDS011;33679;51.218;6.786;2022-12-16T00:32:25;32.10;;;18.00;;
10582;SDS011;33679;51.218;6.786;2022-12-16T00:34:55;35.03;;;17.63;;
10582;SDS011;33679;51.218;6.786;2022-12-16T00:37:23;35.57;;;17.50;;
10582;SDS011;33679;51.218;6.786;2022-12-16T00:39:52;35.00;;;17.70;;
10582;SDS011;33679;51.218;6.786;2022-12-16T00:42:19;41.40;;;16.97;;
10582;SDS011;33679;51.218;6.786;2022-12-16T00:44:46;35.87;;;17.20;;
10582;SDS011;33679;51.218;6.786;2022-12-16T00:47:13;39.07;;;19.20;;
10582;SDS011;33679;51.218;6.786;2022-12-16T00:49:40;37.83;;;19.27;;
10582;SDS011;33679;51.218;6.786;2022-12-16T00:52:08;30.30;;;15.90;;
10582;SDS011;33679;51.218;6.786;2022-12-16T00:54:37;43.03;;;17.90;;
10582;SDS011;33679;51.218;6.786;2022-12-16T00:57:05;33.93;;;17.70;;
10582;SDS011;33679;51.218;6.786;2022-12-16T00:59:33;32.23;;;15.83;;
10582;SDS011;33679;51.218;6.786;2022-12-16T01:02:02;30.67;;;16.90;;
10582;SDS011;33679;51.218;6.786;2022-12-16T01:04:32;32.70;;;16.27;;
10582;SDS011;33679;51.218;6.786;2022-12-16T01:06:59;34.63;;;17.50;;
10582;SDS011;33679;51.218;6.786;2022-12-16T01:09:27;37.47;;;18.17;;
10582;SDS011;33679;51.218;6.786;2022-12-16T01:11:56;36.97;;;17.57;;
10582;SDS011;33679;51.218;6.786;2022-12-16T01:14:23;30.37;;;17.30;;
10582;SDS011;33679;51.218;6.786;2022-12-16T01:16:50;33.43;;;17.47;;
10582;SDS011;33679;51.218;6.786;2022-12-16T01:19:18;35.70;;;18.00;;
10582;SDS011;33679;51.218;6.786;2022-12-16T01:21:45;39.40;;;18.70;;
10582;SDS011;33679;51.218;6.786;2022-12-16T01:24:12;35.33;;;16.77;;
10582;SDS011;33679;51.218;6.786;2022-12-16T01:26:40;37.23;;;18.47;;
10582;SDS011;33679;51.218;6.786;2022-12-16T01:29:09;33.20;;;18.33;;
10582;SDS011;33679;51.218;6.786;2022-12-16T01:31:36;34.17;;;17.07;;
10582;SDS011;33679;51.218;6.786;2022-12-16T01:34:03;34.33;;;16.23;;
10582;SDS011;33679;51.218;6.786;2022-12-16T01:36:31;33.93;;;18.30;;
10582;SDS011;33679;51.218;6.786;2022-12-16T01:38:58;36.30;;;17.67;;
10582;SDS011;33679;51.218;6.786;2022-12-16T01:41:25;31.67;;;17.60;;
10582;SDS011;33679;51.218;6.786;2022-12-16T01:46:43;35.27;;;17.30;;
10582;SDS011;33679;51.218;6.786;2022-12-16T01:49:16;36.40;;;18.37;;
10582;SDS011;33679;51.218;6.786;2022-12-16T01:51:49;37.70;;;18.53;;
10582;SDS011;33679;51.218;6.786;2022-12-16T01:54:18;33.87;;;17.67;;
10582;SDS011;33679;51.218;6.786;2022-12-16T01:56:48;36.07;;;19.17;;
10582;SDS011;33679;51.218;6.786;2022-12-16T01:59:21;37.50;;;17.73;;
10582;SDS011;33679;51.218;6.786;2022-12-16T02:01:51;40.10;;;18.00;;
10582;SDS011;33679;51.218;6.786;2022-12-16T02:04:19;40.87;;;20.70;;
10582;SDS011;33679;51.218;6.786;2022-12-16T02:06:48;32.30;;;17.77;;
10582;SDS011;33679;51.218;6.786;2022-12-16T02:09:16;37.20;;;19.00;;
10582;SDS011;33679;51.218;6.786;2022-12-16T02:14:43;34.93;;;17.53;;
10582;SDS011;33679;51.218;6.786;2022-12-16T02:17:22;35.57;;;17.70;;
10582;SDS011;33679;51.218;6.786;2022-12-16T02:23:10;38.10;;;17.90;;
10582;SDS011;33679;51.218;6.786;2022-12-16T02:26:13;45.67;;;20.20;;
10582;SDS011;33679;51.218;6.786;2022-12-16T02:29:17;37.80;;;18.23;;
10582;SDS011;33679;51.218;6.786;2022-12-16T02:32:06;34.37;;;17.80;;
10582;SDS011;33679;51.218;6.786;2022-12-16T02:34:41;37.87;;;18.00;;
10582;SDS011;33679;51.218;6.786;2022-12-16T02:37:19;33.33;;;18.63;;
10582;SDS011;33679;51.218;6.786;2022-12-16T02:39:57;40.13;;;18.67;;
10582;SDS011;33679;51.218;6.786;2022-12-16T02:42:28;35.83;;;18.50;;
10582;SDS011;33679;51.218;6.786;2022-12-16T02:44:59;29.10;;;17.17;;
10582;SDS011;33679;51.218;6.786;2022-12-16T02:47:30;39.20;;;18.47;;
10582;SDS011;33679;51.218;6.786;2022-12-16T02:49:57;35.10;;;18.50;;
10582;SDS011;33679;51.218;6.786;2022-12-16T02:52:26;36.63;;;18.90;;
10582;SDS011;33679;51.218;6.786;2022-12-16T02:54:58;35.23;;;17.60;;
10582;SDS011;33679;51.218;6.786;2022-12-16T02:57:40;36.53;;;17.70;;
10582;SDS011;33679;51.218;6.786;2022-12-16T03:00:32;29.13;;;16.40;;
10582;SDS011;33679;51.218;6.786;2022-12-16T03:03:11;32.80;;;18.00;;
10582;SDS011;33679;51.218;6.786;2022-12-16T03:05:45;34.10;;;17.57;;
10582;SDS011;33679;51.218;6.786;2022-12-16T03:08:16;40.53;;;19.37;;
10582;SDS011;33679;51.218;6.786;2022-12-16T03:10:50;33.40;;;17.63;;
10582;SDS011;33679;51.218;6.786;2022-12-16T03:13:21;33.23;;;16.93;;
10582;SDS011;33679;51.218;6.786;2022-12-16T03:15:50;33.97;;;17.73;;
10582;SDS011;33679;51.218;6.786;2022-12-16T03:18:21;33.90;;;16.70;;
10582;SDS011;33679;51.218;6.786;2022-12-16T03:20:51;32.13;;;18.40;;
10582;SDS011;33679;51.218;6.786;2022-12-16T03:23:24;36.20;;;16.60;;
10582;SDS011;33679;51.218;6.786;2022-12-16T03:26:00;35.03;;;17.50;;
10582;SDS011;33679;51.218;6.786;2022-12-16T03:28:36;29.67;;;16.97;;
10582;SDS011;33679;51.218;6.786;2022-12-16T03:31:13;31.37;;;18.47;;
10582;SDS011;33679;51.218;6.786;2022-12-16T03:33:54;36.67;;;16.93;;
10582;SDS011;33679;51.218;6.786;2022-12-16T03:36:26;28.03;;;15.53;;
10582;SDS011;33679;51.218;6.786;2022-12-16T03:38:58;37.10;;;17.00;;
10582;SDS011;33679;51.218;6.786;2022-12-16T03:41:27;33.37;;;17.50;;
10582;SDS011;33679;51.218;6.786;2022-12-16T03:43:58;35.27;;;17.47;;
10582;SDS011;33679;51.218;6.786;2022-12-16T03:46:26;37.23;;;18.10;;
10582;SDS011;33679;51.218;6.786;2022-12-16T03:48:55;35.60;;;17.33;;
10582;SDS011;33679;51.218;6.786;2022-12-16T03:51:23;29.87;;;16.87;;
10582;SDS011;33679;51.218;6.786;2022-12-16T03:53:53;37.67;;;18.43;;
10582;SDS011;33679;51.218;6.786;2022-12-16T03:56:21;33.43;;;16.90;;
10582;SDS011;33679;51.218;6.786;2022-12-16T03:58:49;32.40;;;17.30;;
10582;SDS011;33679;51.218;6.786;2022-12-16T04:01:16;35.17;;;17.03;;
10582;SDS011;33679;51.218;6.786;2022-12-16T04:03:47;38.40;;;17.57;;
10582;SDS011;33679;51.218;6.786;2022-12-16T04:06:16;32.83;;;16.57;;
10582;SDS011;33679;51.218;6.786;2022-12-16T04:08:45;37.63;;;17.47;;
10582;SDS011;33679;51.218;6.786;2022-12-16T04:11:13;31.50;;;16.13;;
10582;SDS011;33679;51.218;6.786;2022-12-16T04:13:58;36.13;;;16.17;;
10582;SDS011;33679;51.218;6.786;2022-12-16T04:16:43;33.87;;;15.87;;
10582;SDS011;33679;51.218;6.786;2022-12-16T04:19:29;35.10;;;17.23;;
10582;SDS011;33679;51.218;6.786;2022-12-16T04:22:19;26.67;;;14.77;;
10582;SDS011;33679;51.218;6.786;2022-12-16T04:25:08;30.57;;;16.60;;
10582;SDS011;33679;51.218;6.786;2022-12-16T04:27:38;32.63;;;16.73;;
10582;SDS011;33679;51.218;6.786;2022-12-16T04:30:11;34.20;;;14.93;;
10582;SDS011;33679;51.218;6.786;2022-12-16T04:32:44;28.57;;;14.73;;
10582;SDS011;33679;51.218;6.786;2022-12-16T04:35:29;35.73;;;17.90;;
10582;SDS011;33679;51.218;6.786;2022-12-16T04:38:15;30.93;;;15.60;;
10582;SDS011;33679;51.218;6.786;2022-12-16T04:40:59;31.90;;;16.40;;
10582;SDS011;33679;51.218;6.786;2022-12-16T04:43:47;30.50;;;15.40;;
10582;SDS011;33679;51.218;6.786;2022-12-16T04:46:31;31.90;;;17.40;;
10582;SDS011;33679;51.218;6.786;2022-12-16T04:49:16;33.37;;;16.27;;
10582;SDS011;33679;51.218;6.786;2022-12-16T04:52:05;32.40;;;15.07;;
10582;SDS011;33679;51.218;6.786;2022-12-16T04:54:51;31.50;;;15.43;;
10582;SDS011;33679;51.218;6.786;2022-12-16T04:57:36;31.30;;;15.60;;
10582;SDS011;33679;51.218;6.786;2022-12-16T05:00:21;31.90;;;16.00;;
10582;SDS011;33679;51.218;6.786;2022-12-16T05:03:06;32.90;;;16.10;;
10582;SDS011;33679;51.218;6.786;2022-12-16T05:05:51;31.37;;;15.20;;
10582;SDS011;33679;51.218;6.786;2022-12-16T05:08:35;29.77;;;16.33;;
10582;SDS011;33679;51.218;6.786;2022-12-16T05:11:24;34.20;;;16.87;;
10582;SDS011;33679;51.218;6.786;2022-12-16T05:14:08;31.10;;;15.97;;
10582;SDS011;33679;51.218;6.786;2022-12-16T05:16:53;36.10;;;16.13;;
10582;SDS011;33679;51.218;6.786;2022-12-16T05:19:38;30.00;;;15.53;;
10582;SDS011;33679;51.218;6.786;2022-12-16T05:22:23;30.40;;;16.07;;
10582;SDS011;33679;51.218;6.786;2022-12-16T05:25:07;28.60;;;15.50;;
10582;SDS011;33679;51.218;6.786;2022-12-16T05:28:02;33.83;;;16.30;;
10582;SDS011;33679;51.218;6.786;2022-12-16T05:30:46;35.33;;;17.00;;
10582;SDS011;33679;51.218;6.786;2022-12-16T05:33:31;36.13;;;17.20;;
10582;SDS011;33679;51.218;6.786;2022-12-16T05:36:15;29.83;;;16.40;;
10582;SDS011;33679;51.218;6.786;2022-12-16T05:39:00;37.60;;;16.67;;
10582;SDS011;33679;51.218;6.786;2022-12-16T05:41:45;38.20;;;15.93;;
10582;SDS011;33679;51.218;6.786;2022-12-16T05:44:32;33.07;;;16.13;;
10582;SDS011;33679;51.218;6.786;2022-12-16T05:47:16;30.10;;;16.33;;
10582;SDS011;33679;51.218;6.786;2022-12-16T05:50:01;32.43;;;16.33;;
10582;SDS011;33679;51.218;6.786;2022-12-16T05:52:48;30.47;;;16.30;;
10582;SDS011;33679;51.218;6.786;2022-12-16T05:55:35;31.53;;;16.87;;
10582;SDS011;33679;51.218;6.786;2022-12-16T05:58:20;33.33;;;17.70;;
10582;SDS011;33679;51.218;6.786;2022-12-16T06:01:06;36.27;;;17.30;;
10582;SDS011;33679;51.218;6.786;2022-12-16T06:03:50;30.37;;;15.97;;
10582;SDS011;33679;51.218;6.786;2022-12-16T06:06:35;29.47;;;14.57;;
10582;SDS011;33679;51.218;6.786;2022-12-16T06:09:20;38.30;;;15.17;;
10582;SDS011;33679;51.218;6.786;2022-12-16T06:12:10;27.83;;;16.33;;
10582;SDS011;33679;51.218;6.786;2022-12-16T06:14:54;32.07;;;14.70;;
10582;SDS011;33679;51.218;6.786;2022-12-16T06:17:41;33.63;;;15.70;;
10582;SDS011;33679;51.218;6.786;2022-12-16T06:20:26;32.77;;;15.83;;
10582;SDS011;33679;51.218;6.786;2022-12-16T06:23:11;30.53;;;16.40;;
10582;SDS011;33679;51.218;6.786;2022-12-16T06:25:55;29.27;;;15.73;;
10582;SDS011;33679;51.218;6.786;2022-12-16T06:28:40;34.80;;;16.37;;
10582;SDS011;33679;51.218;6.786;2022-12-16T06:31:24;28.57;;;16.00;;
10582;SDS011;33679;51.218;6.786;2022-12-16T06:34:10;36.17;;;17.60;;
10582;SDS011;33679;51.218;6.786;2022-12-16T06:36:55;31.60;;;15.97;;
10582;SDS011;33679;51.218;6.786;2022-12-16T06:39:42;33.77;;;17.57;;
10582;SDS011;33679;51.218;6.786;2022-12-16T06:42:28;35.40;;;16.80;;
10582;SDS011;33679;51.218;6.786;2022-12-16T06:45:13;31.23;;;15.63;;
10582;SDS011;33679;51.218;6.786;2022-12-16T06:47:58;30.80;;;15.40;;
10582;SDS011;33679;51.218;6.786;2022-12-16T06:50:44;36.23;;;17.63;;
10582;SDS011;33679;51.218;6.786;2022-12-16T06:53:31;29.70;;;15.13;;
10582;SDS011;33679;51.218;6.786;2022-12-16T06:56:15;36.73;;;17.43;;
10582;SDS011;33679;51.218;6.786;2022-12-16T06:59:00;31.90;;;17.27;;
10582;SDS011;33679;51.218;6.786;2022-12-16T07:01:45;31.70;;;16.37;;
10582;SDS011;33679;51.218;6.786;2022-12-16T07:04:29;32.67;;;16.33;;
10582;SDS011;33679;51.218;6.786;2022-12-16T07:07:11;35.00;;;16.37;;
10582;SDS011;33679;51.218;6.786;2022-12-16T07:09:56;34.80;;;16.57;;
10582;SDS011;33679;51.218;6.786;2022-12-16T07:12:41;32.37;;;17.50;;
10582;SDS011;33679;51.218;6.786;2022-12-16T07:15:26;30.90;;;16.37;;
10582;SDS011;33679;51.218;6.786;2022-12-16T07:18:11;31.83;;;16.50;;
10582;SDS011;33679;51.218;6.786;2022-12-16T07:20:55;32.37;;;15.40;;
10582;SDS011;33679;51.218;6.786;2022-12-16T07:23:44;38.00;;;16.53;;
10582;SDS011;33679;51.218;6.786;2022-12-16T07:26:31;32.90;;;16.63;;
10582;SDS011;33679;51.218;6.786;2022-12-16T07:29:15;34.53;;;17.63;;
10582;SDS011;33679;51.218;6.786;2022-12-16T07:31:59;31.67;;;15.00;;
10582;SDS011;33679;51.218;6.786;2022-12-16T07:34:44;29.67;;;15.10;;
10582;SDS011;33679;51.218;6.786;2022-12-16T07:37:35;28.33;;;15.27;;
10582;SDS011;33679;51.218;6.786;2022-12-16T07:40:22;30.47;;;16.73;;
10582;SDS011;33679;51.218;6.786;2022-12-16T07:43:06;32.23;;;15.00;;
10582;SDS011;33679;51.218;6.786;2022-12-16T07:45:51;33.03;;;16.57;;
10582;SDS011;33679;51.218;6.786;2022-12-16T07:48:35;29.87;;;16.00;;
10582;SDS011;33679;51.218;6.786;2022-12-16T07:51:20;29.17;;;14.67;;
10582;SDS011;33679;51.218;6.786;2022-12-16T07:54:04;34.90;;;15.60;;
10582;SDS011;33679;51.218;6.786;2022-12-16T07:56:51;29.97;;;15.27;;
10582;SDS011;33679;51.218;6.786;2022-12-16T07:59:36;31.90;;;16.70;;
10582;SDS011;33679;51.218;6.786;2022-12-16T08:02:23;40.33;;;16.23;;
10582;SDS011;33679;51.218;6.786;2022-12-16T08:05:07;41.73;;;16.10;;
10582;SDS011;33679;51.218;6.786;2022-12-16T08:07:52;29.43;;;15.53;;
10582;SDS011;33679;51.218;6.786;2022-12-16T08:10:36;29.63;;;16.47;;
10582;SDS011;33679;51.218;6.786;2022-12-16T08:13:22;32.43;;;16.87;;
10582;SDS011;33679;51.218;6.786;2022-12-16T08:16:07;30.37;;;15.53;;
10582;SDS011;33679;51.218;6.786;2022-12-16T08:18:52;30.50;;;15.60;;
10582;SDS011;33679;51.218;6.786;2022-12-16T08:21:37;31.47;;;16.80;;
10582;SDS011;33679;51.218;6.786;2022-12-16T08:24:21;36.57;;;16.07;;
10582;SDS011;33679;51.218;6.786;2022-12-16T08:27:02;29.50;;;15.93;;
10582;SDS011;33679;51.218;6.786;2022-12-16T08:29:49;33.70;;;15.70;;
10582;SDS011;33679;51.218;6.786;2022-12-16T08:32:33;46.07;;;22.07;;
10582;SDS011;33679;51.218;6.786;2022-12-16T08:35:18;38.80;;;19.77;;
10582;SDS011;33679;51.218;6.786;2022-12-16T08:38:03;33.23;;;15.90;;
10582;SDS011;33679;51.218;6.786;2022-12-16T08:40:48;36.70;;;15.50;;
10582;SDS011;33679;51.218;6.786;2022-12-16T08:43:32;34.40;;;17.73;;
10582;SDS011;33679;51.218;6.786;2022-12-16T08:46:28;35.90;;;17.00;;
10582;SDS011;33679;51.218;6.786;2022-12-16T08:49:12;37.00;;;16.37;;
10582;SDS011;33679;51.218;6.786;2022-12-16T08:51:57;41.33;;;18.17;;
10582;SDS011;33679;51.218;6.786;2022-12-16T08:54:42;36.77;;;16.60;;
10582;SDS011;33679;51.218;6.786;2022-12-16T08:57:29;31.53;;;16.17;;
10582;SDS011;33679;51.218;6.786;2022-12-16T09:00:13;40.00;;;17.73;;
10582;SDS011;33679;51.218;6.786;2022-12-16T09:03:00;44.23;;;20.90;;
10582;SDS011;33679;51.218;6.786;2022-12-16T09:05:44;35.10;;;17.13;;
10582;SDS011;33679;51.218;6.786;2022-12-16T09:08:29;34.40;;;16.30;;
10582;SDS011;33679;51.218;6.786;2022-12-16T09:11:14;37.30;;;17.47;;
10582;SDS011;33679;51.218;6.786;2022-12-16T09:13:58;47.00;;;16.97;;
10582;SDS011;33679;51.218;6.786;2022-12-16T09:16:43;36.47;;;16.77;;
10582;SDS011;33679;51.218;6.786;2022-12-16T09:19:29;36.00;;;17.03;;
10582;SDS011;33679;51.218;6.786;2022-12-16T09:22:14;28.57;;;16.70;;
10582;SDS011;33679;51.218;6.786;2022-12-16T09:24:58;29.70;;;15.57;;
10582;SDS011;33679;51.218;6.786;2022-12-16T09:27:43;41.07;;;19.43;;
10582;SDS011;33679;51.218;6.786;2022-12-16T09:30:46;31.87;;;16.50;;
10582;SDS011;33679;51.218;6.786;2022-12-16T09:33:30;35.47;;;16.70;;
10582;SDS011;33679;51.218;6.786;2022-12-16T09:36:17;34.83;;;15.87;;
10582;SDS011;33679;51.218;6.786;2022-12-16T09:39:03;31.77;;;15.83;;
10582;SDS011;33679;51.218;6.786;2022-12-16T09:41:51;37.23;;;16.40;;
10582;SDS011;33679;51.218;6.786;2022-12-16T09:44:46;30.53;;;16.40;;
10582;SDS011;33679;51.218;6.786;2022-12-16T09:47:45;33.20;;;16.80;;
10582;SDS011;33679;51.218;6.786;2022-12-16T09:50:38;36.63;;;17.33;;
10582;SDS011;33679;51.218;6.786;2022-12-16T09:53:26;29.10;;;15.90;;
10582;SDS011;33679;51.218;6.786;2022-12-16T09:56:18;31.67;;;15.80;;
10582;SDS011;33679;51.218;6.786;2022-12-16T09:59:11;32.50;;;18.37;;
10582;SDS011;33679;51.218;6.786;2022-12-16T10:02:01;41.10;;;18.87;;
10582;SDS011;33679;51.218;6.786;2022-12-16T10:04:49;37.90;;;17.37;;
10582;SDS011;33679;51.218;6.786;2022-12-16T10:07:35;31.73;;;16.30;;
10582;SDS011;33679;51.218;6.786;2022-12-16T10:10:29;36.53;;;16.50;;
10582;SDS011;33679;51.218;6.786;2022-12-16T10:13:23;33.80;;;17.13;;
10582;SDS011;33679;51.218;6.786;2022-12-16T10:16:18;33.90;;;16.93;;
10582;SDS011;33679;51.218;6.786;2022-12-16T10:19:10;42.77;;;19.97;;
10582;SDS011;33679;51.218;6.786;2022-12-16T10:22:02;35.53;;;19.37;;
10582;SDS011;33679;51.218;6.786;2022-12-16T10:24:54;36.90;;;17.97;;
10582;SDS011;33679;51.218;6.786;2022-12-16T10:27:45;40.03;;;17.17;;
10582;SDS011;33679;51.218;6.786;2022-12-16T10:30:35;41.43;;;18.67;;
10582;SDS011;33679;51.218;6.786;2022-12-16T10:33:21;40.50;;;19.70;;
10582;SDS011;33679;51.218;6.786;2022-12-16T10:36:12;52.70;;;23.27;;
10582;SDS011;33679;51.218;6.786;2022-12-16T10:39:15;49.13;;;20.30;;
10582;SDS011;33679;51.218;6.786;2022-12-16T10:42:13;50.87;;;19.50;;
10582;SDS011;33679;51.218;6.786;2022-12-16T10:45:06;41.70;;;20.93;;
10582;SDS011;33679;51.218;6.786;2022-12-16T10:48:04;41.90;;;19.83;;
10582;SDS011;33679;51.218;6.786;2022-12-16T10:50:48;38.50;;;19.50;;
10582;SDS011;33679;51.218;6.786;2022-12-16T10:53:35;44.87;;;19.83;;
10582;SDS011;33679;51.218;6.786;2022-12-16T10:56:29;41.43;;;21.07;;
10582;SDS011;33679;51.218;6.786;2022-12-16T10:59:22;41.93;;;18.60;;
10582;SDS011;33679;51.218;6.786;2022-12-16T11:02:18;38.80;;;18.77;;
10582;SDS011;33679;51.218;6.786;2022-12-16T11:05:21;36.53;;;18.70;;
10582;SDS011;33679;51.218;6.786;2022-12-16T11:08:21;49.00;;;22.90;;
10582;SDS011;33679;51.218;6.786;2022-12-16T11:11:11;47.33;;;21.40;;
10582;SDS011;33679;51.218;6.786;2022-12-16T11:17:09;38.80;;;18.53;;
10582;SDS011;33679;51.218;6.786;2022-12-16T11:20:06;46.50;;;19.50;;
10582;SDS011;33679;51.218;6.786;2022-12-16T11:23:06;46.10;;;19.57;;
10582;SDS011;33679;51.218;6.786;2022-12-16T11:26:05;48.57;;;20.87;;
10582;SDS011;33679;51.218;6.786;2022-12-16T11:31:59;44.03;;;20.87;;
10582;SDS011;33679;51.218;6.786;2022-12-16T11:34:52;37.47;;;18.77;;
10582;SDS011;33679;51.218;6.786;2022-12-16T11:37:43;38.83;;;18.53;;
10582;SDS011;33679;51.218;6.786;2022-12-16T11:40:29;50.30;;;20.03;;
10582;SDS011;33679;51.218;6.786;2022-12-16T11:43:17;40.93;;;19.00;;
10582;SDS011;33679;51.218;6.786;2022-12-16T11:46:04;42.27;;;19.33;;
10582;SDS011;33679;51.218;6.786;2022-12-16T11:48:53;45.53;;;19.30;;
10582;SDS011;33679;51.218;6.786;2022-12-16T11:51:42;50.60;;;20.57;;
10582;SDS011;33679;51.218;6.786;2022-12-16T11:54:38;51.27;;;20.90;;
10582;SDS011;33679;51.218;6.786;2022-12-16T11:57:37;49.23;;;21.23;;
10582;SDS011;33679;51.218;6.786;2022-12-16T12:00:27;57.00;;;23.17;;
10582;SDS011;33679;51.218;6.786;2022-12-16T12:03:13;53.30;;;22.17;;
10582;SDS011;33679;51.218;6.786;2022-12-16T12:06:04;48.50;;;20.60;;
10582;SDS011;33679;51.218;6.786;2022-12-16T12:09:02;58.87;;;22.07;;
10582;SDS011;33679;51.218;6.786;2022-12-16T12:12:10;48.40;;;20.87;;
10582;SDS011;33679;51.218;6.786;2022-12-16T12:15:22;59.33;;;21.20;;
10582;SDS011;33679;51.218;6.786;2022-12-16T12:18:15;47.93;;;19.50;;
10582;SDS011;33679;51.218;6.786;2022-12-16T12:21:06;47.40;;;18.30;;
10582;SDS011;33679;51.218;6.786;2022-12-16T12:24:03;50.20;;;19.83;;
10582;SDS011;33679;51.218;6.786;2022-12-16T12:27:01;45.50;;;19.40;;
10582;SDS011;33679;51.218;6.786;2022-12-16T12:29:54;49.33;;;20.00;;
10582;SDS011;33679;51.218;6.786;2022-12-16T12:32:47;42.73;;;18.83;;
10582;SDS011;33679;51.218;6.786;2022-12-16T12:35:44;52.87;;;19.07;;
10582;SDS011;33679;51.218;6.786;2022-12-16T12:38:39;48.27;;;18.40;;
10582;SDS011;33679;51.218;6.786;2022-12-16T12:41:40;47.20;;;19.23;;
10582;SDS011;33679;51.218;6.786;2022-12-16T12:44:42;53.50;;;21.20;;
10582;SDS011;33679;51.218;6.786;2022-12-16T12:47:41;64.30;;;21.93;;
10582;SDS011;33679;51.218;6.786;2022-12-16T12:50:35;60.53;;;20.43;;
10582;SDS011;33679;51.218;6.786;2022-12-16T12:53:31;65.70;;;22.37;;
10582;SDS011;33679;51.218;6.786;2022-12-16T12:56:29;62.03;;;22.27;;
10582;SDS011;33679;51.218;6.786;2022-12-16T12:59:23;66.83;;;22.57;;
10582;SDS011;33679;51.218;6.786;2022-12-16T13:02:14;73.63;;;23.90;;
10582;SDS011;33679;51.218;6.786;2022-12-16T13:05:03;65.50;;;22.80;;
10582;SDS011;33679;51.218;6.786;2022-12-16T13:07:49;62.43;;;23.80;;
10582;SDS011;33679;51.218;6.786;2022-12-16T13:10:38;66.20;;;21.60;;
10582;SDS011;33679;51.218;6.786;2022-12-16T13:13:30;56.00;;;20.17;;
10582;SDS011;33679;51.218;6.786;2022-12-16T13:19:43;61.53;;;20.07;;
10582;SDS011;33679;51.218;6.786;2022-12-16T13:22:30;52.30;;;18.60;;
10582;SDS011;33679;51.218;6.786;2022-12-16T13:28:25;58.93;;;21.30;;
10582;SDS011;33679;51.218;6.786;2022-12-16T13:31:27;59.57;;;21.27;;
10582;SDS011;33679;51.218;6.786;2022-12-16T13:34:26;47.00;;;20.70;;
10582;SDS011;33679;51.218;6.786;2022-12-16T13:37:19;58.17;;;21.13;;
10582;SDS011;33679;51.218;6.786;2022-12-16T13:40:12;59.73;;;19.87;;
10582;SDS011;33679;51.218;6.786;2022-12-16T13:43:01;47.93;;;19.60;;
10582;SDS011;33679;51.218;6.786;2022-12-16T13:52:21;52.00;;;19.80;;
10582;SDS011;33679;51.218;6.786;2022-12-16T13:55:13;48.53;;;19.17;;
10582;SDS011;33679;51.218;6.786;2022-12-16T13:58:02;57.40;;;20.10;;
10582;SDS011;33679;51.218;6.786;2022-12-16T14:00:56;49.40;;;18.60;;
10582;SDS011;33679;51.218;6.786;2022-12-16T14:03:47;48.57;;;16.27;;
10582;SDS011;33679;51.218;6.786;2022-12-16T14:06:34;53.40;;;19.37;;
10582;SDS011;33679;51.218;6.786;2022-12-16T14:12:39;37.00;;;14.97;;
10582;SDS011;33679;51.218;6.786;2022-12-16T14:15:31;31.77;;;14.10;;
10582;SDS011;33679;51.218;6.786;2022-12-16T14:18:25;42.03;;;15.17;;
10582;SDS011;33679;51.218;6.786;2022-12-16T14:21:21;35.33;;;14.00;;
10582;SDS011;33679;51.218;6.786;2022-12-16T14:24:16;38.80;;;13.90;;
10582;SDS011;33679;51.218;6.786;2022-12-16T14:27:12;36.60;;;13.70;;
10582;SDS011;33679;51.218;6.786;2022-12-16T14:29:59;39.30;;;13.63;;
10582;SDS011;33679;51.218;6.786;2022-12-16T14:32:47;38.70;;;14.53;;
10582;SDS011;33679;51.218;6.786;2022-12-16T14:35:31;39.30;;;15.67;;
10582;SDS011;33679;51.218;6.786;2022-12-16T14:38:21;40.30;;;15.37;;
10582;SDS011;33679;51.218;6.786;2022-12-16T14:41:18;37.77;;;13.83;;
10582;SDS011;33679;51.218;6.786;2022-12-16T14:44:15;33.13;;;12.37;;
10582;SDS011;33679;51.218;6.786;2022-12-16T14:47:04;40.50;;;14.70;;
10582;SDS011;33679;51.218;6.786;2022-12-16T14:49:52;50.87;;;16.07;;
10582;SDS011;33679;51.218;6.786;2022-12-16T14:52:40;40.17;;;15.27;;
10582;SDS011;33679;51.218;6.786;2022-12-16T14:55:25;39.40;;;13.67;;
10582;SDS011;33679;51.218;6.786;2022-12-16T14:58:12;36.27;;;13.80;;
10582;SDS011;33679;51.218;6.786;2022-12-16T15:01:02;47.27;;;15.37;;
10582;SDS011;33679;51.218;6.786;2022-12-16T15:03:55;39.83;;;15.87;;
10582;SDS011;33679;51.218;6.786;2022-12-16T15:06:45;53.33;;;16.33;;
10582;SDS011;33679;51.218;6.786;2022-12-16T15:09:33;37.17;;;14.50;;
10582;SDS011;33679;51.218;6.786;2022-12-16T15:12:23;40.50;;;14.80;;
10582;SDS011;33679;51.218;6.786;2022-12-16T15:15:14;32.57;;;12.60;;
10582;SDS011;33679;51.218;6.786;2022-12-16T15:18:14;44.87;;;15.03;;
10582;SDS011;33679;51.218;6.786;2022-12-16T15:21:01;44.60;;;15.73;;
10582;SDS011;33679;51.218;6.786;2022-12-16T15:23:46;43.80;;;15.43;;
10582;SDS011;33679;51.218;6.786;2022-12-16T15:26:32;49.60;;;15.80;;
10582;SDS011;33679;51.218;6.786;2022-12-16T15:29:28;46.57;;;15.70;;
10582;SDS011;33679;51.218;6.786;2022-12-16T15:32:26;41.27;;;15.90;;
10582;SDS011;33679;51.218;6.786;2022-12-16T15:35:30;41.30;;;14.17;;
10582;SDS011;33679;51.218;6.786;2022-12-16T15:38:25;41.70;;;15.93;;
10582;SDS011;33679;51.218;6.786;2022-12-16T15:41:19;48.83;;;17.10;;
10582;SDS011;33679;51.218;6.786;2022-12-16T15:44:12;49.00;;;17.10;;
10582;SDS011;33679;51.218;6.786;2022-12-16T15:46:58;47.83;;;17.47;;
10582;SDS011;33679;51.218;6.786;2022-12-16T15:49:44;53.77;;;17.97;;
10582;SDS011;33679;51.218;6.786;2022-12-16T15:52:35;48.27;;;16.00;;
10582;SDS011;33679;51.218;6.786;2022-12-16T15:55:22;46.27;;;17.80;;
10582;SDS011;33679;51.218;6.786;2022-12-16T15:58:11;47.47;;;18.53;;
10582;SDS011;33679;51.218;6.786;2022-12-16T16:00:57;54.07;;;17.30;;
10582;SDS011;33679;51.218;6.786;2022-12-16T16:03:47;56.20;;;15.93;;
10582;SDS011;33679;51.218;6.786;2022-12-16T16:06:33;50.97;;;16.80;;
10582;SDS011;33679;51.218;6.786;2022-12-16T16:09:21;53.93;;;18.80;;
10582;SDS011;33679;51.218;6.786;2022-12-16T16:12:07;50.67;;;17.93;;
10582;SDS011;33679;51.218;6.786;2022-12-16T16:14:53;45.20;;;16.03;;
10582;SDS011;33679;51.218;6.786;2022-12-16T16:17:37;38.00;;;13.90;;
10582;SDS011;33679;51.218;6.786;2022-12-16T16:20:22;46.17;;;15.77;;
10582;SDS011;33679;51.218;6.786;2022-12-16T16:23:08;51.90;;;20.20;;
10582;SDS011;33679;51.218;6.786;2022-12-16T16:25:55;52.97;;;18.30;;
10582;SDS011;33679;51.218;6.786;2022-12-16T16:28:40;41.07;;;15.37;;